Terminal Aerodrome Forecast
Issued by NWS

Current Version | Previous Version | Text Only | Print | Product List | Glossary On
Versions: 1 2 3 4 5 6 7 8 9 10 11 12 13 14 15 16 17 18
000
FTUS43 KGRR 241100
TAFBTL
TAF
KBTL 241125Z 2412/2512 11007KT P6SM BKN080 OVC100
     FM241300 13009KT P6SM OVC050
     FM241600 13012G22KT P6SM BKN050
     FM250000 13011KT P6SM SCT050 OVC100
     FM251000 11007KT 4SM -RA OVC025=

USA.gov is the U.S. government's official web portal to all federal, state and local government web resources and services.